sensor_id;sensor_type;location;lat;lon;timestamp;P1;durP1;ratioP1;P2;durP2;ratioP2
9228;SDS011;4649;42.644;23.284;2022-10-16T00:01:15;4.33;;;3.60;;
9228;SDS011;4649;42.644;23.284;2022-10-16T00:03:45;4.40;;;3.27;;
9228;SDS011;4649;42.644;23.284;2022-10-16T00:06:13;4.07;;;3.63;;
9228;SDS011;4649;42.644;23.284;2022-10-16T00:08:41;4.20;;;4.00;;
9228;SDS011;4649;42.644;23.284;2022-10-16T00:11:09;3.50;;;3.30;;
9228;SDS011;4649;42.644;23.284;2022-10-16T00:13:39;4.00;;;3.70;;
9228;SDS011;4649;42.644;23.284;2022-10-16T00:16:07;4.50;;;3.30;;
9228;SDS011;4649;42.644;23.284;2022-10-16T00:18:36;4.83;;;4.53;;
9228;SDS011;4649;42.644;23.284;2022-10-16T00:21:07;4.90;;;4.33;;
9228;SDS011;4649;42.644;23.284;2022-10-16T00:23:37;5.30;;;4.80;;
9228;SDS011;4649;42.644;23.284;2022-10-16T00:26:05;5.33;;;5.03;;
9228;SDS011;4649;42.644;23.284;2022-10-16T00:28:36;5.67;;;5.17;;
9228;SDS011;4649;42.644;23.284;2022-10-16T00:31:04;6.13;;;5.47;;
9228;SDS011;4649;42.644;23.284;2022-10-16T00:33:32;5.37;;;4.43;;
9228;SDS011;4649;42.644;23.284;2022-10-16T00:36:00;5.27;;;4.70;;
9228;SDS011;4649;42.644;23.284;2022-10-16T00:38:30;4.80;;;4.57;;
9228;SDS011;4649;42.644;23.284;2022-10-16T00:40:57;5.43;;;5.00;;
9228;SDS011;4649;42.644;23.284;2022-10-16T00:43:39;5.10;;;4.73;;
9228;SDS011;4649;42.644;23.284;2022-10-16T00:46:12;6.03;;;4.07;;
9228;SDS011;4649;42.644;23.284;2022-10-16T00:48:43;6.77;;;4.67;;
9228;SDS011;4649;42.644;23.284;2022-10-16T00:51:13;4.83;;;4.53;;
9228;SDS011;4649;42.644;23.284;2022-10-16T00:53:43;4.90;;;4.60;;
9228;SDS011;4649;42.644;23.284;2022-10-16T00:56:11;6.80;;;4.57;;
9228;SDS011;4649;42.644;23.284;2022-10-16T00:58:38;5.43;;;4.53;;
9228;SDS011;4649;42.644;23.284;2022-10-16T01:01:07;5.53;;;4.20;;
9228;SDS011;4649;42.644;23.284;2022-10-16T01:03:35;3.97;;;3.77;;
9228;SDS011;4649;42.644;23.284;2022-10-16T01:06:09;3.90;;;3.70;;
9228;SDS011;4649;42.644;23.284;2022-10-16T01:08:52;4.93;;;3.83;;
9228;SDS011;4649;42.644;23.284;2022-10-16T01:11:30;4.63;;;4.20;;
9228;SDS011;4649;42.644;23.284;2022-10-16T01:14:06;4.67;;;4.40;;
9228;SDS011;4649;42.644;23.284;2022-10-16T01:16:43;4.33;;;4.03;;
9228;SDS011;4649;42.644;23.284;2022-10-16T01:19:17;4.60;;;4.17;;
9228;SDS011;4649;42.644;23.284;2022-10-16T01:22:06;5.27;;;4.53;;
9228;SDS011;4649;42.644;23.284;2022-10-16T01:24:40;4.87;;;4.60;;
9228;SDS011;4649;42.644;23.284;2022-10-16T01:27:15;10.73;;;5.20;;
9228;SDS011;4649;42.644;23.284;2022-10-16T01:29:49;4.47;;;4.27;;
9228;SDS011;4649;42.644;23.284;2022-10-16T01:32:25;4.40;;;4.00;;
9228;SDS011;4649;42.644;23.284;2022-10-16T01:34:59;3.93;;;3.63;;
9228;SDS011;4649;42.644;23.284;2022-10-16T01:37:32;7.33;;;4.73;;
9228;SDS011;4649;42.644;23.284;2022-10-16T01:40:05;4.23;;;4.03;;
9228;SDS011;4649;42.644;23.284;2022-10-16T01:42:52;4.43;;;4.13;;
9228;SDS011;4649;42.644;23.284;2022-10-16T01:45:25;6.30;;;4.50;;
9228;SDS011;4649;42.644;23.284;2022-10-16T01:47:58;5.17;;;4.67;;
9228;SDS011;4649;42.644;23.284;2022-10-16T01:50:31;4.57;;;4.20;;
9228;SDS011;4649;42.644;23.284;2022-10-16T01:53:08;4.30;;;4.00;;
9228;SDS011;4649;42.644;23.284;2022-10-16T01:55:41;6.10;;;4.40;;
9228;SDS011;4649;42.644;23.284;2022-10-16T01:58:13;6.67;;;3.97;;
9228;SDS011;4649;42.644;23.284;2022-10-16T02:00:42;5.00;;;4.20;;
9228;SDS011;4649;42.644;23.284;2022-10-16T02:03:13;3.60;;;3.40;;
9228;SDS011;4649;42.644;23.284;2022-10-16T02:05:45;6.60;;;3.70;;
9228;SDS011;4649;42.644;23.284;2022-10-16T02:08:15;3.50;;;3.30;;
9228;SDS011;4649;42.644;23.284;2022-10-16T02:10:42;3.67;;;3.47;;
9228;SDS011;4649;42.644;23.284;2022-10-16T02:13:10;3.57;;;3.27;;
9228;SDS011;4649;42.644;23.284;2022-10-16T02:15:43;3.90;;;3.70;;
9228;SDS011;4649;42.644;23.284;2022-10-16T02:18:10;3.80;;;3.60;;
9228;SDS011;4649;42.644;23.284;2022-10-16T02:20:39;5.20;;;4.20;;
9228;SDS011;4649;42.644;23.284;2022-10-16T02:23:12;6.03;;;5.43;;
9228;SDS011;4649;42.644;23.284;2022-10-16T02:25:48;4.63;;;4.33;;
9228;SDS011;4649;42.644;23.284;2022-10-16T02:28:21;5.90;;;5.40;;
9228;SDS011;4649;42.644;23.284;2022-10-16T02:30:51;5.40;;;5.10;;
9228;SDS011;4649;42.644;23.284;2022-10-16T02:33:23;4.70;;;4.37;;
9228;SDS011;4649;42.644;23.284;2022-10-16T02:35:52;4.53;;;4.13;;
9228;SDS011;4649;42.644;23.284;2022-10-16T02:38:22;4.20;;;4.00;;
9228;SDS011;4649;42.644;23.284;2022-10-16T02:40:52;5.13;;;4.83;;
9228;SDS011;4649;42.644;23.284;2022-10-16T02:43:21;5.00;;;4.53;;
9228;SDS011;4649;42.644;23.284;2022-10-16T02:45:48;5.23;;;4.80;;
9228;SDS011;4649;42.644;23.284;2022-10-16T02:48:16;5.60;;;5.30;;
9228;SDS011;4649;42.644;23.284;2022-10-16T02:50:43;6.83;;;6.43;;
9228;SDS011;4649;42.644;23.284;2022-10-16T02:53:12;6.50;;;6.03;;
9228;SDS011;4649;42.644;23.284;2022-10-16T02:55:40;6.03;;;5.53;;
9228;SDS011;4649;42.644;23.284;2022-10-16T02:58:08;5.73;;;5.33;;
9228;SDS011;4649;42.644;23.284;2022-10-16T03:00:38;6.43;;;5.93;;
9228;SDS011;4649;42.644;23.284;2022-10-16T03:03:05;5.87;;;5.37;;
9228;SDS011;4649;42.644;23.284;2022-10-16T03:05:32;7.37;;;6.60;;
9228;SDS011;4649;42.644;23.284;2022-10-16T03:08:00;7.50;;;6.97;;
9228;SDS011;4649;42.644;23.284;2022-10-16T03:10:27;7.60;;;7.07;;
9228;SDS011;4649;42.644;23.284;2022-10-16T03:12:54;9.47;;;8.53;;
9228;SDS011;4649;42.644;23.284;2022-10-16T03:15:22;7.90;;;7.30;;
9228;SDS011;4649;42.644;23.284;2022-10-16T03:17:51;8.70;;;7.87;;
9228;SDS011;4649;42.644;23.284;2022-10-16T03:20:19;8.70;;;7.23;;
9228;SDS011;4649;42.644;23.284;2022-10-16T03:22:47;8.47;;;7.93;;
9228;SDS011;4649;42.644;23.284;2022-10-16T03:25:13;9.00;;;8.33;;
9228;SDS011;4649;42.644;23.284;2022-10-16T03:27:41;11.93;;;8.33;;
9228;SDS011;4649;42.644;23.284;2022-10-16T03:30:11;9.20;;;8.40;;
9228;SDS011;4649;42.644;23.284;2022-10-16T03:32:41;8.30;;;7.70;;
9228;SDS011;4649;42.644;23.284;2022-10-16T03:35:15;8.87;;;8.27;;
9228;SDS011;4649;42.644;23.284;2022-10-16T03:37:46;7.57;;;7.03;;
9228;SDS011;4649;42.644;23.284;2022-10-16T03:40:14;7.57;;;6.80;;
9228;SDS011;4649;42.644;23.284;2022-10-16T03:42:42;6.80;;;6.30;;
9228;SDS011;4649;42.644;23.284;2022-10-16T03:45:09;7.43;;;6.83;;
9228;SDS011;4649;42.644;23.284;2022-10-16T03:47:37;7.13;;;6.47;;
9228;SDS011;4649;42.644;23.284;2022-10-16T03:50:05;7.70;;;6.67;;
9228;SDS011;4649;42.644;23.284;2022-10-16T03:52:34;6.87;;;6.40;;
9228;SDS011;4649;42.644;23.284;2022-10-16T03:55:01;6.90;;;6.40;;
9228;SDS011;4649;42.644;23.284;2022-10-16T03:57:28;7.57;;;6.87;;
9228;SDS011;4649;42.644;23.284;2022-10-16T03:59:56;12.13;;;6.30;;
9228;SDS011;4649;42.644;23.284;2022-10-16T04:02:23;7.93;;;7.33;;
9228;SDS011;4649;42.644;23.284;2022-10-16T04:04:51;9.43;;;7.90;;
9228;SDS011;4649;42.644;23.284;2022-10-16T04:07:18;8.27;;;7.60;;
9228;SDS011;4649;42.644;23.284;2022-10-16T04:09:47;7.87;;;7.13;;
9228;SDS011;4649;42.644;23.284;2022-10-16T04:12:17;7.40;;;6.67;;
9228;SDS011;4649;42.644;23.284;2022-10-16T04:14:45;7.57;;;7.00;;
9228;SDS011;4649;42.644;23.284;2022-10-16T04:17:13;6.57;;;6.13;;
9228;SDS011;4649;42.644;23.284;2022-10-16T04:19:40;6.10;;;5.70;;
9228;SDS011;4649;42.644;23.284;2022-10-16T04:22:08;6.70;;;6.30;;
9228;SDS011;4649;42.644;23.284;2022-10-16T04:24:35;7.73;;;6.03;;
9228;SDS011;4649;42.644;23.284;2022-10-16T04:27:04;7.07;;;6.37;;
9228;SDS011;4649;42.644;23.284;2022-10-16T04:29:31;6.83;;;6.23;;
9228;SDS011;4649;42.644;23.284;2022-10-16T04:31:58;7.33;;;6.67;;
9228;SDS011;4649;42.644;23.284;2022-10-16T04:34:25;6.77;;;6.10;;
9228;SDS011;4649;42.644;23.284;2022-10-16T04:36:52;6.67;;;6.13;;
9228;SDS011;4649;42.644;23.284;2022-10-16T04:39:22;5.93;;;5.37;;
9228;SDS011;4649;42.644;23.284;2022-10-16T04:41:49;8.60;;;5.80;;
9228;SDS011;4649;42.644;23.284;2022-10-16T04:44:31;6.30;;;5.90;;
9228;SDS011;4649;42.644;23.284;2022-10-16T04:47:00;6.77;;;6.20;;
9228;SDS011;4649;42.644;23.284;2022-10-16T04:49:27;8.00;;;7.37;;
9228;SDS011;4649;42.644;23.284;2022-10-16T04:51:55;7.83;;;7.23;;
9228;SDS011;4649;42.644;23.284;2022-10-16T04:54:23;8.23;;;7.17;;
9228;SDS011;4649;42.644;23.284;2022-10-16T04:57:01;7.37;;;6.77;;
9228;SDS011;4649;42.644;23.284;2022-10-16T05:03:11;6.57;;;6.17;;
9228;SDS011;4649;42.644;23.284;2022-10-16T05:08:31;5.70;;;5.30;;
9228;SDS011;4649;42.644;23.284;2022-10-16T05:11:08;6.77;;;6.03;;
9228;SDS011;4649;42.644;23.284;2022-10-16T05:13:50;6.40;;;5.87;;
9228;SDS011;4649;42.644;23.284;2022-10-16T05:19:41;5.00;;;4.60;;
9228;SDS011;4649;42.644;23.284;2022-10-16T05:22:07;5.30;;;5.03;;
9228;SDS011;4649;42.644;23.284;2022-10-16T05:24:37;5.30;;;4.93;;
9228;SDS011;4649;42.644;23.284;2022-10-16T05:36:27;10.98;;;9.20;;
9228;SDS011;4649;42.644;23.284;2022-10-16T05:39:00;9.60;;;8.20;;
9228;SDS011;4649;42.644;23.284;2022-10-16T05:41:27;6.07;;;5.53;;
9228;SDS011;4649;42.644;23.284;2022-10-16T05:43:53;6.37;;;5.97;;
9228;SDS011;4649;42.644;23.284;2022-10-16T05:46:20;6.10;;;5.60;;
9228;SDS011;4649;42.644;23.284;2022-10-16T05:48:48;6.07;;;5.63;;
9228;SDS011;4649;42.644;23.284;2022-10-16T05:51:15;6.33;;;5.70;;
9228;SDS011;4649;42.644;23.284;2022-10-16T05:53:46;8.33;;;5.77;;
9228;SDS011;4649;42.644;23.284;2022-10-16T05:56:14;6.10;;;5.70;;
9228;SDS011;4649;42.644;23.284;2022-10-16T05:58:41;6.93;;;6.53;;
9228;SDS011;4649;42.644;23.284;2022-10-16T06:01:10;10.07;;;6.70;;
9228;SDS011;4649;42.644;23.284;2022-10-16T06:03:40;8.00;;;7.23;;
9228;SDS011;4649;42.644;23.284;2022-10-16T06:06:09;11.17;;;10.13;;
9228;SDS011;4649;42.644;23.284;2022-10-16T06:08:37;6.77;;;6.30;;
9228;SDS011;4649;42.644;23.284;2022-10-16T06:11:07;6.63;;;6.13;;
9228;SDS011;4649;42.644;23.284;2022-10-16T06:13:37;5.87;;;5.33;;
9228;SDS011;4649;42.644;23.284;2022-10-16T06:16:06;9.30;;;5.77;;
9228;SDS011;4649;42.644;23.284;2022-10-16T06:18:33;6.50;;;5.50;;
9228;SDS011;4649;42.644;23.284;2022-10-16T06:21:06;5.33;;;4.93;;
9228;SDS011;4649;42.644;23.284;2022-10-16T06:23:34;6.23;;;5.10;;
9228;SDS011;4649;42.644;23.284;2022-10-16T06:26:04;5.88;;;5.47;;
9228;SDS011;4649;42.644;23.284;2022-10-16T06:28:33;6.85;;;6.28;;
9228;SDS011;4649;42.644;23.284;2022-10-16T06:31:05;10.65;;;6.03;;
9228;SDS011;4649;42.644;23.284;2022-10-16T06:33:33;6.07;;;5.50;;
9228;SDS011;4649;42.644;23.284;2022-10-16T06:36:00;7.53;;;6.30;;
9228;SDS011;4649;42.644;23.284;2022-10-16T06:38:28;8.60;;;6.88;;
9228;SDS011;4649;42.644;23.284;2022-10-16T06:40:55;6.97;;;6.47;;
9228;SDS011;4649;42.644;23.284;2022-10-16T06:43:24;6.38;;;5.82;;
9228;SDS011;4649;42.644;23.284;2022-10-16T06:45:51;6.18;;;5.70;;
9228;SDS011;4649;42.644;23.284;2022-10-16T06:48:18;9.48;;;6.10;;
9228;SDS011;4649;42.644;23.284;2022-10-16T06:50:54;6.47;;;5.90;;
9228;SDS011;4649;42.644;23.284;2022-10-16T06:53:22;6.55;;;5.90;;
9228;SDS011;4649;42.644;23.284;2022-10-16T06:55:48;7.47;;;5.88;;
9228;SDS011;4649;42.644;23.284;2022-10-16T06:58:15;10.85;;;6.25;;
9228;SDS011;4649;42.644;23.284;2022-10-16T07:00:44;7.05;;;6.07;;
9228;SDS011;4649;42.644;23.284;2022-10-16T07:03:11;6.30;;;5.95;;
9228;SDS011;4649;42.644;23.284;2022-10-16T07:05:37;6.10;;;5.50;;
9228;SDS011;4649;42.644;23.284;2022-10-16T07:08:06;6.95;;;5.75;;
9228;SDS011;4649;42.644;23.284;2022-10-16T07:10:33;6.70;;;4.63;;
9228;SDS011;4649;42.644;23.284;2022-10-16T07:13:00;5.03;;;4.63;;
9228;SDS011;4649;42.644;23.284;2022-10-16T07:15:27;5.15;;;4.32;;
9228;SDS011;4649;42.644;23.284;2022-10-16T07:17:57;5.47;;;3.90;;
9228;SDS011;4649;42.644;23.284;2022-10-16T07:20:24;6.07;;;4.43;;
9228;SDS011;4649;42.644;23.284;2022-10-16T07:22:51;10.60;;;4.18;;
9228;SDS011;4649;42.644;23.284;2022-10-16T07:25:18;3.75;;;3.55;;
9228;SDS011;4649;42.644;23.284;2022-10-16T07:27:45;19.25;;;16.25;;
9228;SDS011;4649;42.644;23.284;2022-10-16T07:30:11;5.13;;;3.80;;
9228;SDS011;4649;42.644;23.284;2022-10-16T07:32:38;9.32;;;3.72;;
9228;SDS011;4649;42.644;23.284;2022-10-16T07:35:07;4.95;;;3.88;;
9228;SDS011;4649;42.644;23.284;2022-10-16T07:37:34;5.30;;;5.00;;
9228;SDS011;4649;42.644;23.284;2022-10-16T07:40:01;3.58;;;3.38;;
9228;SDS011;4649;42.644;23.284;2022-10-16T07:42:31;3.10;;;2.85;;
9228;SDS011;4649;42.644;23.284;2022-10-16T07:44:58;6.00;;;3.17;;
9228;SDS011;4649;42.644;23.284;2022-10-16T07:47:25;3.67;;;3.40;;
9228;SDS011;4649;42.644;23.284;2022-10-16T07:49:52;3.42;;;3.13;;
9228;SDS011;4649;42.644;23.284;2022-10-16T07:52:22;3.83;;;3.55;;
9228;SDS011;4649;42.644;23.284;2022-10-16T07:54:49;3.70;;;3.40;;
9228;SDS011;4649;42.644;23.284;2022-10-16T07:57:15;3.08;;;2.88;;
9228;SDS011;4649;42.644;23.284;2022-10-16T07:59:44;5.97;;;3.58;;
9228;SDS011;4649;42.644;23.284;2022-10-16T08:02:11;3.28;;;3.08;;
9228;SDS011;4649;42.644;23.284;2022-10-16T08:04:38;4.05;;;2.90;;
9228;SDS011;4649;42.644;23.284;2022-10-16T08:07:06;4.88;;;3.88;;
9228;SDS011;4649;42.644;23.284;2022-10-16T08:09:35;3.60;;;3.40;;
9228;SDS011;4649;42.644;23.284;2022-10-16T08:12:02;3.40;;;3.20;;
9228;SDS011;4649;42.644;23.284;2022-10-16T08:14:29;21.15;;;3.83;;
9228;SDS011;4649;42.644;23.284;2022-10-16T08:16:56;7.63;;;4.22;;
9228;SDS011;4649;42.644;23.284;2022-10-16T08:19:23;3.65;;;3.33;;
9228;SDS011;4649;42.644;23.284;2022-10-16T08:21:51;3.83;;;3.58;;
9228;SDS011;4649;42.644;23.284;2022-10-16T08:24:17;5.75;;;4.07;;
9228;SDS011;4649;42.644;23.284;2022-10-16T08:26:47;6.13;;;3.97;;
9228;SDS011;4649;42.644;23.284;2022-10-16T08:29:15;9.02;;;3.80;;
9228;SDS011;4649;42.644;23.284;2022-10-16T08:31:43;3.80;;;3.40;;
9228;SDS011;4649;42.644;23.284;2022-10-16T08:34:11;4.05;;;3.67;;
9228;SDS011;4649;42.644;23.284;2022-10-16T08:36:40;15.73;;;4.20;;
9228;SDS011;4649;42.644;23.284;2022-10-16T08:39:07;4.72;;;3.80;;
9228;SDS011;4649;42.644;23.284;2022-10-16T08:41:39;4.65;;;4.25;;
9228;SDS011;4649;42.644;23.284;2022-10-16T08:44:53;5.55;;;3.95;;
9228;SDS011;4649;42.644;23.284;2022-10-16T08:47:46;4.20;;;3.90;;
9228;SDS011;4649;42.644;23.284;2022-10-16T08:50:22;10.55;;;4.10;;
9228;SDS011;4649;42.644;23.284;2022-10-16T08:52:52;5.45;;;4.15;;
9228;SDS011;4649;42.644;23.284;2022-10-16T08:55:23;4.22;;;3.15;;
9228;SDS011;4649;42.644;23.284;2022-10-16T08:57:58;3.72;;;3.40;;
9228;SDS011;4649;42.644;23.284;2022-10-16T09:00:26;10.75;;;3.60;;
9228;SDS011;4649;42.644;23.284;2022-10-16T09:02:56;3.40;;;3.10;;
9228;SDS011;4649;42.644;23.284;2022-10-16T09:05:38;5.13;;;2.55;;
9228;SDS011;4649;42.644;23.284;2022-10-16T09:08:20;3.08;;;2.88;;
9228;SDS011;4649;42.644;23.284;2022-10-16T09:10:54;4.03;;;3.63;;
9228;SDS011;4649;42.644;23.284;2022-10-16T09:13:28;3.08;;;2.80;;
9228;SDS011;4649;42.644;23.284;2022-10-16T09:16:13;2.55;;;1.83;;
9228;SDS011;4649;42.644;23.284;2022-10-16T09:18:48;2.75;;;2.45;;
9228;SDS011;4649;42.644;23.284;2022-10-16T09:21:23;3.45;;;2.97;;
9228;SDS011;4649;42.644;23.284;2022-10-16T09:23:53;3.25;;;3.00;;
9228;SDS011;4649;42.644;23.284;2022-10-16T09:26:23;3.22;;;2.85;;
9228;SDS011;4649;42.644;23.284;2022-10-16T09:28:53;2.58;;;2.38;;
9228;SDS011;4649;42.644;23.284;2022-10-16T09:31:20;3.55;;;2.38;;
9228;SDS011;4649;42.644;23.284;2022-10-16T09:33:50;3.83;;;2.13;;
9228;SDS011;4649;42.644;23.284;2022-10-16T09:36:20;3.47;;;2.50;;
9228;SDS011;4649;42.644;23.284;2022-10-16T09:39:00;3.90;;;3.00;;
9228;SDS011;4649;42.644;23.284;2022-10-16T09:41:29;3.03;;;2.80;;
9228;SDS011;4649;42.644;23.284;2022-10-16T09:43:58;3.30;;;3.10;;
9228;SDS011;4649;42.644;23.284;2022-10-16T09:46:28;5.53;;;2.63;;
9228;SDS011;4649;42.644;23.284;2022-10-16T09:48:57;4.20;;;2.35;;
9228;SDS011;4649;42.644;23.284;2022-10-16T09:51:26;2.40;;;2.30;;
9228;SDS011;4649;42.644;23.284;2022-10-16T09:53:55;2.40;;;2.30;;
9228;SDS011;4649;42.644;23.284;2022-10-16T09:56:24;2.08;;;1.98;;
9228;SDS011;4649;42.644;23.284;2022-10-16T09:58:54;6.35;;;3.10;;
9228;SDS011;4649;42.644;23.284;2022-10-16T10:01:25;3.63;;;3.42;;
9228;SDS011;4649;42.644;23.284;2022-10-16T10:03:56;3.28;;;2.40;;
9228;SDS011;4649;42.644;23.284;2022-10-16T10:06:28;4.38;;;2.35;;
9228;SDS011;4649;42.644;23.284;2022-10-16T10:09:06;3.05;;;2.85;;
9228;SDS011;4649;42.644;23.284;2022-10-16T10:11:50;13.10;;;3.05;;
9228;SDS011;4649;42.644;23.284;2022-10-16T10:14:26;2.50;;;2.30;;
9228;SDS011;4649;42.644;23.284;2022-10-16T10:17:13;4.07;;;3.17;;
9228;SDS011;4649;42.644;23.284;2022-10-16T10:19:45;4.15;;;2.97;;
9228;SDS011;4649;42.644;23.284;2022-10-16T10:22:18;2.58;;;2.00;;
9228;SDS011;4649;42.644;23.284;2022-10-16T10:25:00;2.72;;;2.58;;
9228;SDS011;4649;42.644;23.284;2022-10-16T10:27:43;2.13;;;2.03;;
9228;SDS011;4649;42.644;23.284;2022-10-16T10:30:20;4.57;;;2.93;;
9228;SDS011;4649;42.644;23.284;2022-10-16T10:32:55;2.90;;;2.43;;
9228;SDS011;4649;42.644;23.284;2022-10-16T10:35:39;7.27;;;2.27;;
9228;SDS011;4649;42.644;23.284;2022-10-16T10:38:16;2.50;;;2.40;;
9228;SDS011;4649;42.644;23.284;2022-10-16T10:40:56;3.20;;;2.90;;
9228;SDS011;4649;42.644;23.284;2022-10-16T10:43:39;5.10;;;2.90;;
9228;SDS011;4649;42.644;23.284;2022-10-16T10:46:17;4.57;;;2.80;;
9228;SDS011;4649;42.644;23.284;2022-10-16T10:51:22;5.30;;;2.97;;
9228;SDS011;4649;42.644;23.284;2022-10-16T10:53:58;4.87;;;2.53;;
9228;SDS011;4649;42.644;23.284;2022-10-16T10:56:47;12.23;;;3.30;;
9228;SDS011;4649;42.644;23.284;2022-10-16T10:59:29;2.63;;;2.53;;
9228;SDS011;4649;42.644;23.284;2022-10-16T11:02:22;5.00;;;2.87;;
9228;SDS011;4649;42.644;23.284;2022-10-16T11:17:16;2.57;;;2.37;;
9228;SDS011;4649;42.644;23.284;2022-10-16T11:20:14;2.87;;;2.30;;
9228;SDS011;4649;42.644;23.284;2022-10-16T11:23:35;2.17;;;2.07;;
9228;SDS011;4649;42.644;23.284;2022-10-16T11:26:16;2.40;;;2.27;;
9228;SDS011;4649;42.644;23.284;2022-10-16T11:28:47;2.70;;;2.43;;
9228;SDS011;4649;42.644;23.284;2022-10-16T11:31:16;2.30;;;2.20;;
9228;SDS011;4649;42.644;23.284;2022-10-16T11:33:49;4.83;;;2.20;;
9228;SDS011;4649;42.644;23.284;2022-10-16T11:36:22;4.97;;;2.20;;
9228;SDS011;4649;42.644;23.284;2022-10-16T11:38:52;2.73;;;2.20;;
9228;SDS011;4649;42.644;23.284;2022-10-16T11:41:29;2.20;;;2.10;;
9228;SDS011;4649;42.644;23.284;2022-10-16T11:44:06;2.43;;;1.77;;
9228;SDS011;4649;42.644;23.284;2022-10-16T11:46:44;2.00;;;1.73;;
9228;SDS011;4649;42.644;23.284;2022-10-16T11:49:18;5.40;;;2.40;;
9228;SDS011;4649;42.644;23.284;2022-10-16T11:51:48;5.77;;;2.13;;
9228;SDS011;4649;42.644;23.284;2022-10-16T11:54:24;2.13;;;2.03;;
9228;SDS011;4649;42.644;23.284;2022-10-16T11:57:01;2.37;;;1.70;;
9228;SDS011;4649;42.644;23.284;2022-10-16T11:59:36;1.43;;;1.43;;
9228;SDS011;4649;42.644;23.284;2022-10-16T12:02:17;2.13;;;2.00;;
9228;SDS011;4649;42.644;23.284;2022-10-16T12:05:02;2.37;;;2.27;;
9228;SDS011;4649;42.644;23.284;2022-10-16T12:07:48;2.13;;;1.93;;
9228;SDS011;4649;42.644;23.284;2022-10-16T12:10:21;5.37;;;1.87;;
9228;SDS011;4649;42.644;23.284;2022-10-16T12:12:51;1.70;;;1.70;;
9228;SDS011;4649;42.644;23.284;2022-10-16T12:15:23;1.60;;;1.60;;
9228;SDS011;4649;42.644;23.284;2022-10-16T12:17:52;1.60;;;1.60;;
9228;SDS011;4649;42.644;23.284;2022-10-16T12:20:21;1.90;;;1.80;;
9228;SDS011;4649;42.644;23.284;2022-10-16T12:22:52;1.93;;;1.83;;
9228;SDS011;4649;42.644;23.284;2022-10-16T12:25:22;1.83;;;1.73;;
9228;SDS011;4649;42.644;23.284;2022-10-16T12:27:59;1.80;;;1.70;;
9228;SDS011;4649;42.644;23.284;2022-10-16T12:30:28;1.50;;;1.47;;
9228;SDS011;4649;42.644;23.284;2022-10-16T12:32:57;1.80;;;1.70;;
9228;SDS011;4649;42.644;23.284;2022-10-16T12:35:28;1.80;;;1.70;;
9228;SDS011;4649;42.644;23.284;2022-10-16T12:38:12;1.70;;;1.70;;
9228;SDS011;4649;42.644;23.284;2022-10-16T12:46:37;1.83;;;1.47;;
9228;SDS011;4649;42.644;23.284;2022-10-16T12:51:51;2.83;;;1.70;;
9228;SDS011;4649;42.644;23.284;2022-10-16T12:54:21;2.03;;;1.87;;
9228;SDS011;4649;42.644;23.284;2022-10-16T12:57:10;1.60;;;1.60;;
9228;SDS011;4649;42.644;23.284;2022-10-16T13:08:35;1.90;;;1.80;;
9228;SDS011;4649;42.644;23.284;2022-10-16T13:14:47;1.63;;;1.53;;
9228;SDS011;4649;42.644;23.284;2022-10-16T13:17:55;1.73;;;1.63;;
9228;SDS011;4649;42.644;23.284;2022-10-16T13:20:29;7.23;;;2.20;;
9228;SDS011;4649;42.644;23.284;2022-10-16T13:23:49;1.73;;;1.63;;
9228;SDS011;4649;42.644;23.284;2022-10-16T13:38:37;4.53;;;2.83;;
9228;SDS011;4649;42.644;23.284;2022-10-16T13:41:04;2.60;;;1.90;;
9228;SDS011;4649;42.644;23.284;2022-10-16T13:43:44;2.00;;;1.90;;
9228;SDS011;4649;42.644;23.284;2022-10-16T13:46:13;1.97;;;1.87;;
9228;SDS011;4649;42.644;23.284;2022-10-16T13:51:41;2.13;;;2.00;;
9228;SDS011;4649;42.644;23.284;2022-10-16T13:54:39;2.47;;;2.27;;
9228;SDS011;4649;42.644;23.284;2022-10-16T13:57:13;1.70;;;1.70;;
9228;SDS011;4649;42.644;23.284;2022-10-16T13:59:43;1.90;;;1.80;;
9228;SDS011;4649;42.644;23.284;2022-10-16T14:02:17;4.40;;;2.20;;
9228;SDS011;4649;42.644;23.284;2022-10-16T14:04:48;1.97;;;1.87;;
9228;SDS011;4649;42.644;23.284;2022-10-16T14:07:18;2.10;;;2.00;;
9228;SDS011;4649;42.644;23.284;2022-10-16T14:09:51;2.03;;;1.93;;
9228;SDS011;4649;42.644;23.284;2022-10-16T14:12:18;10.97;;;2.20;;
9228;SDS011;4649;42.644;23.284;2022-10-16T14:14:48;2.20;;;2.10;;
9228;SDS011;4649;42.644;23.284;2022-10-16T14:17:18;2.17;;;1.90;;
9228;SDS011;4649;42.644;23.284;2022-10-16T14:19:46;2.37;;;2.27;;
9228;SDS011;4649;42.644;23.284;2022-10-16T14:22:19;2.30;;;2.20;;
9228;SDS011;4649;42.644;23.284;2022-10-16T14:24:57;2.13;;;2.03;;
9228;SDS011;4649;42.644;23.284;2022-10-16T14:27:26;2.00;;;1.90;;
9228;SDS011;4649;42.644;23.284;2022-10-16T14:30:12;2.50;;;2.33;;
9228;SDS011;4649;42.644;23.284;2022-10-16T14:32:41;3.47;;;2.60;;
9228;SDS011;4649;42.644;23.284;2022-10-16T14:35:22;2.60;;;2.43;;
9228;SDS011;4649;42.644;23.284;2022-10-16T14:37:52;2.73;;;2.50;;
9228;SDS011;4649;42.644;23.284;2022-10-16T14:40:22;3.00;;;2.57;;
9228;SDS011;4649;42.644;23.284;2022-10-16T14:42:50;2.60;;;2.40;;
9228;SDS011;4649;42.644;23.284;2022-10-16T14:45:18;2.07;;;1.97;;
9228;SDS011;4649;42.644;23.284;2022-10-16T14:47:48;2.37;;;2.27;;
9228;SDS011;4649;42.644;23.284;2022-10-16T14:50:18;2.53;;;2.13;;
9228;SDS011;4649;42.644;23.284;2022-10-16T14:53:07;3.33;;;2.60;;
9228;SDS011;4649;42.644;23.284;2022-10-16T14:58:41;2.60;;;2.50;;
9228;SDS011;4649;42.644;23.284;2022-10-16T15:01:09;2.70;;;2.50;;
9228;SDS011;4649;42.644;23.284;2022-10-16T15:03:37;6.27;;;2.60;;
9228;SDS011;4649;42.644;23.284;2022-10-16T15:06:04;2.80;;;2.57;;
9228;SDS011;4649;42.644;23.284;2022-10-16T15:08:37;2.97;;;2.73;;
9228;SDS011;4649;42.644;23.284;2022-10-16T15:11:04;3.13;;;2.93;;
9228;SDS011;4649;42.644;23.284;2022-10-16T15:13:33;3.13;;;2.93;;
9228;SDS011;4649;42.644;23.284;2022-10-16T15:16:02;3.00;;;2.80;;
9228;SDS011;4649;42.644;23.284;2022-10-16T15:18:29;2.37;;;2.27;;
9228;SDS011;4649;42.644;23.284;2022-10-16T15:20:56;6.53;;;2.70;;
9228;SDS011;4649;42.644;23.284;2022-10-16T15:23:23;2.50;;;2.40;;
9228;SDS011;4649;42.644;23.284;2022-10-16T15:25:50;4.53;;;2.70;;
9228;SDS011;4649;42.644;23.284;2022-10-16T15:28:21;2.60;;;2.40;;
9228;SDS011;4649;42.644;23.284;2022-10-16T15:30:50;3.43;;;2.50;;
9228;SDS011;4649;42.644;23.284;2022-10-16T15:33:20;3.17;;;2.90;;
9228;SDS011;4649;42.644;23.284;2022-10-16T15:35:49;3.10;;;2.90;;
9228;SDS011;4649;42.644;23.284;2022-10-16T15:38:17;2.60;;;2.50;;
9228;SDS011;4649;42.644;23.284;2022-10-16T15:40:45;2.77;;;2.57;;
9228;SDS011;4649;42.644;23.284;2022-10-16T15:43:13;3.07;;;2.87;;
9228;SDS011;4649;42.644;23.284;2022-10-16T15:45:40;2.77;;;2.67;;
9228;SDS011;4649;42.644;23.284;2022-10-16T15:48:09;2.47;;;2.37;;
9228;SDS011;4649;42.644;23.284;2022-10-16T15:50:39;2.93;;;2.60;;
9228;SDS011;4649;42.644;23.284;2022-10-16T15:53:07;2.77;;;2.57;;
9228;SDS011;4649;42.644;23.284;2022-10-16T15:55:34;2.47;;;2.37;;
9228;SDS011;4649;42.644;23.284;2022-10-16T15:58:03;3.07;;;2.87;;
9228;SDS011;4649;42.644;23.284;2022-10-16T16:00:30;6.20;;;2.73;;
9228;SDS011;4649;42.644;23.284;2022-10-16T16:02:57;3.03;;;2.30;;
9228;SDS011;4649;42.644;23.284;2022-10-16T16:05:24;3.20;;;2.33;;
9228;SDS011;4649;42.644;23.284;2022-10-16T16:07:54;2.10;;;2.00;;
9228;SDS011;4649;42.644;23.284;2022-10-16T16:10:20;3.53;;;2.50;;
9228;SDS011;4649;42.644;23.284;2022-10-16T16:12:50;2.73;;;2.53;;
9228;SDS011;4649;42.644;23.284;2022-10-16T16:15:18;2.80;;;2.30;;
9228;SDS011;4649;42.644;23.284;2022-10-16T16:17:50;2.83;;;2.60;;
9228;SDS011;4649;42.644;23.284;2022-10-16T16:20:17;2.30;;;2.20;;
9228;SDS011;4649;42.644;23.284;2022-10-16T16:22:45;2.40;;;2.30;;
9228;SDS011;4649;42.644;23.284;2022-10-16T16:25:13;2.63;;;2.43;;
9228;SDS011;4649;42.644;23.284;2022-10-16T16:27:40;5.50;;;2.20;;
9228;SDS011;4649;42.644;23.284;2022-10-16T16:30:09;3.83;;;2.03;;
9228;SDS011;4649;42.644;23.284;2022-10-16T16:32:37;2.17;;;2.07;;
9228;SDS011;4649;42.644;23.284;2022-10-16T16:35:05;2.37;;;2.27;;
9228;SDS011;4649;42.644;23.284;2022-10-16T16:37:33;2.20;;;2.10;;
9228;SDS011;4649;42.644;23.284;2022-10-16T16:40:00;4.97;;;2.20;;